createdAt,value
2018-12-17T00:00:29.367Z,0.00
2018-12-17T00:01:29.357Z,0.00
2018-12-17T00:02:29.368Z,0.00
2018-12-17T00:03:29.335Z,0.00
2018-12-17T00:04:29.321Z,0.00
2018-12-17T00:05:30.576Z,0.00
2018-12-17T00:06:29.300Z,0.00
2018-12-17T00:07:29.304Z,0.00
2018-12-17T00:08:32.070Z,0.00
2018-12-17T00:09:29.266Z,0.00
2018-12-17T00:10:29.254Z,0.00
2018-12-17T00:11:29.241Z,0.00
2018-12-17T00:12:29.258Z,0.00
2018-12-17T00:13:29.221Z,0.00
2018-12-17T00:14:29.209Z,0.00
2018-12-17T00:15:29.200Z,0.00
2018-12-17T00:16:29.185Z,0.00
2018-12-17T00:17:29.193Z,0.00
2018-12-17T00:18:29.165Z,0.00
2018-12-17T00:19:29.155Z,0.00
2018-12-17T00:20:29.142Z,0.00
2018-12-17T00:21:29.134Z,0.00
2018-12-17T00:22:29.140Z,0.00
2018-12-17T00:23:29.113Z,0.00
2018-12-17T00:24:29.095Z,0.00
2018-12-17T00:25:29.088Z,0.00
2018-12-17T00:26:29.071Z,0.00
2018-12-17T00:27:29.080Z,0.00
2018-12-17T00:28:29.050Z,0.00
2018-12-17T00:29:29.043Z,0.00
2018-12-17T00:30:29.028Z,0.00
2018-12-17T00:31:29.017Z,0.00
2018-12-17T00:32:29.023Z,0.00
2018-12-17T00:33:28.997Z,0.00
2018-12-17T00:34:28.983Z,0.00
2018-12-17T00:35:28.976Z,0.00
2018-12-17T00:36:28.960Z,0.00
2018-12-17T00:37:28.967Z,0.00
2018-12-17T00:38:28.937Z,0.00
2018-12-17T00:39:28.928Z,0.00
2018-12-17T00:40:28.915Z,0.00
2018-12-17T00:41:28.904Z,0.00
2018-12-17T00:42:28.913Z,0.00
2018-12-17T00:43:28.883Z,0.00
2018-12-17T00:44:28.870Z,0.00
2018-12-17T00:45:28.863Z,0.00
2018-12-17T00:46:28.848Z,0.00
2018-12-17T00:47:28.857Z,0.00
2018-12-17T00:48:28.826Z,0.00
2018-12-17T00:49:28.814Z,0.00
2018-12-17T00:50:28.802Z,0.00
2018-12-17T00:51:28.791Z,0.00
2018-12-17T00:52:28.798Z,0.00
2018-12-17T00:53:28.771Z,0.00
2018-12-17T00:54:28.759Z,0.00
2018-12-17T00:55:28.785Z,0.00
2018-12-17T00:56:28.735Z,0.00
2018-12-17T00:57:28.742Z,0.00
2018-12-17T00:58:28.712Z,0.00
2018-12-17T00:59:28.701Z,0.00
2018-12-17T01:00:28.691Z,0.00
2018-12-17T01:01:28.679Z,0.00
2018-12-17T01:02:28.692Z,0.00
2018-12-17T01:03:28.658Z,0.00
2018-12-17T01:04:28.644Z,0.00
2018-12-17T01:05:28.633Z,0.00
2018-12-17T01:06:28.623Z,0.00
2018-12-17T01:07:28.634Z,0.00
2018-12-17T01:08:28.605Z,0.00
2018-12-17T01:09:28.590Z,0.00
2018-12-17T01:10:28.577Z,0.00
2018-12-17T01:11:28.569Z,0.00
2018-12-17T01:12:28.577Z,0.00
2018-12-17T01:13:28.545Z,0.00
2018-12-17T01:14:28.541Z,0.00
2018-12-17T01:15:28.521Z,0.00
2018-12-17T01:16:28.516Z,0.00
2018-12-17T01:17:28.519Z,0.00
2018-12-17T01:18:28.487Z,0.00
2018-12-17T01:19:28.477Z,0.00
2018-12-17T01:20:28.465Z,0.00
2018-12-17T01:21:28.453Z,0.00
2018-12-17T01:22:28.473Z,0.00
2018-12-17T01:23:28.432Z,0.00
2018-12-17T01:24:28.419Z,0.00
2018-12-17T01:25:28.415Z,0.00
2018-12-17T01:26:28.396Z,0.00
2018-12-17T01:27:28.407Z,0.00
2018-12-17T01:28:28.374Z,0.00
2018-12-17T01:29:28.367Z,0.00
2018-12-17T01:30:28.351Z,0.00
2018-12-17T01:31:28.343Z,0.00
2018-12-17T01:32:28.347Z,0.00
2018-12-17T01:33:28.317Z,0.00
2018-12-17T01:34:28.307Z,0.00
2018-12-17T01:35:28.335Z,0.00
2018-12-17T01:36:28.285Z,0.00
2018-12-17T01:37:28.293Z,0.00
2018-12-17T01:38:28.263Z,0.00
2018-12-17T01:39:28.250Z,0.00
2018-12-17T01:40:28.239Z,0.00
2018-12-17T01:41:28.247Z,0.00
2018-12-17T01:42:28.218Z,0.00
2018-12-17T01:43:28.209Z,0.00
2018-12-17T01:44:28.195Z,0.00
2018-12-17T01:45:28.183Z,0.00
2018-12-17T01:46:28.190Z,0.00
2018-12-17T01:47:28.161Z,0.00
2018-12-17T01:48:28.148Z,0.00
2018-12-17T01:49:28.142Z,0.00
2018-12-17T01:50:28.128Z,0.00
2018-12-17T01:51:28.132Z,0.00
2018-12-17T01:52:28.104Z,0.00
2018-12-17T01:53:28.093Z,0.00
2018-12-17T01:54:28.082Z,0.00
2018-12-17T01:55:28.069Z,0.00
2018-12-17T01:56:28.084Z,0.00
2018-12-17T01:57:28.047Z,0.00
2018-12-17T01:58:29.331Z,0.00
2018-12-17T01:59:28.027Z,0.00
2018-12-17T02:00:28.012Z,0.00
2018-12-17T02:01:28.022Z,0.00
2018-12-17T02:02:27.992Z,0.00
2018-12-17T02:03:27.979Z,0.00
2018-12-17T02:04:27.968Z,0.00
2018-12-17T02:05:27.961Z,0.00
2018-12-17T02:06:27.964Z,0.00
2018-12-17T02:07:27.935Z,0.00
2018-12-17T02:08:27.928Z,0.00
2018-12-17T02:09:27.912Z,0.00
2018-12-17T02:10:27.901Z,0.00
2018-12-17T02:11:27.910Z,0.00
2018-12-17T02:12:27.877Z,0.00
2018-12-17T02:13:27.865Z,0.00
2018-12-17T02:14:27.853Z,0.00
2018-12-17T02:15:27.846Z,0.00
2018-12-17T02:16:27.851Z,0.00
2018-12-17T02:17:27.821Z,0.00
2018-12-17T02:18:27.809Z,0.00
2018-12-17T02:19:27.800Z,0.00
2018-12-17T02:20:27.787Z,0.00
2018-12-17T02:21:27.801Z,0.00
2018-12-17T02:22:27.766Z,0.00
2018-12-17T02:23:27.755Z,0.00
2018-12-17T02:24:27.743Z,0.00
2018-12-17T02:25:27.733Z,0.00
2018-12-17T02:26:27.746Z,0.00
2018-12-17T02:27:27.709Z,0.00
2018-12-17T02:28:27.700Z,0.00
2018-12-17T02:29:27.689Z,0.00
2018-12-17T02:30:27.680Z,0.00
2018-12-17T02:31:27.693Z,0.00
2018-12-17T02:32:28.444Z,0.00
2018-12-17T02:33:27.643Z,0.00
2018-12-17T02:34:27.630Z,0.00
2018-12-17T02:35:27.619Z,0.00
2018-12-17T02:36:27.627Z,0.00
2018-12-17T02:37:27.598Z,0.00
2018-12-17T02:38:27.587Z,0.00
2018-12-17T02:39:27.575Z,0.00
2018-12-17T02:40:27.564Z,0.00
2018-12-17T02:41:27.570Z,0.00
2018-12-17T02:42:27.540Z,0.00
2018-12-17T02:43:27.530Z,0.00
2018-12-17T02:44:27.518Z,0.00
2018-12-17T02:45:27.507Z,0.00
2018-12-17T02:46:27.510Z,0.00
2018-12-17T02:47:27.482Z,0.00
2018-12-17T02:48:27.474Z,0.00
2018-12-17T02:49:27.462Z,0.00
2018-12-17T02:50:27.450Z,0.00
2018-12-17T02:51:27.457Z,0.00
2018-12-17T02:52:27.426Z,0.00
2018-12-17T02:53:27.418Z,0.00
2018-12-17T02:54:27.408Z,0.00
2018-12-17T02:55:27.395Z,0.00
2018-12-17T02:56:27.408Z,0.00
2018-12-17T02:57:27.371Z,0.00
2018-12-17T02:58:27.360Z,0.00
2018-12-17T02:59:27.379Z,0.00
2018-12-17T03:00:27.339Z,0.00
2018-12-17T03:01:27.344Z,0.00
2018-12-17T03:02:27.387Z,0.00
2018-12-17T03:03:27.300Z,0.00
2018-12-17T03:04:27.291Z,0.00
2018-12-17T03:05:27.280Z,0.00
2018-12-17T03:06:27.289Z,0.00
2018-12-17T03:07:27.264Z,0.00
2018-12-17T03:08:27.251Z,0.00
2018-12-17T03:09:27.237Z,0.00
2018-12-17T03:10:27.236Z,0.00
2018-12-17T03:11:27.228Z,0.00
2018-12-17T03:12:27.201Z,0.00
2018-12-17T03:13:27.189Z,0.00
2018-12-17T03:14:27.181Z,0.00
2018-12-17T03:15:27.171Z,0.00
2018-12-17T03:16:27.178Z,0.00
2018-12-17T03:17:27.144Z,0.00
2018-12-17T03:18:27.133Z,0.00
2018-12-17T03:19:27.124Z,0.00
2018-12-17T03:20:27.113Z,0.00
2018-12-17T03:21:27.130Z,0.00
2018-12-17T03:22:27.089Z,0.00
2018-12-17T03:23:27.077Z,0.00
2018-12-17T03:24:27.065Z,0.00
2018-12-17T03:25:27.054Z,0.00
2018-12-17T03:26:27.057Z,0.00
2018-12-17T03:27:27.032Z,0.00
2018-12-17T03:28:27.026Z,0.00
2018-12-17T03:29:27.011Z,0.00
2018-12-17T03:30:27.009Z,0.00
2018-12-17T03:31:27.007Z,0.00
2018-12-17T03:32:26.981Z,0.00
2018-12-17T03:33:26.966Z,0.00
2018-12-17T03:34:26.953Z,0.00
2018-12-17T03:35:26.944Z,0.00
2018-12-17T03:36:26.948Z,0.00
2018-12-17T03:37:26.922Z,0.00
2018-12-17T03:38:26.910Z,0.00
2018-12-17T03:39:26.898Z,0.00
2018-12-17T03:40:26.888Z,0.00
2018-12-17T03:41:26.898Z,0.00
2018-12-17T03:42:26.867Z,0.00
2018-12-17T03:43:26.854Z,0.00
2018-12-17T03:44:26.842Z,0.00
2018-12-17T03:45:26.830Z,0.00
2018-12-17T03:46:26.838Z,0.00
2018-12-17T03:47:26.806Z,0.00
2018-12-17T03:48:26.797Z,0.00
2018-12-17T03:49:26.785Z,0.00
2018-12-17T03:50:26.777Z,0.00
2018-12-17T03:51:26.780Z,0.00
2018-12-17T03:52:26.749Z,0.00
2018-12-17T03:53:26.740Z,0.00
2018-12-17T03:54:26.728Z,0.00
2018-12-17T03:55:26.737Z,0.00
2018-12-17T03:56:26.744Z,0.00
2018-12-17T03:57:26.695Z,0.00
2018-12-17T03:58:26.685Z,0.00
2018-12-17T03:59:26.673Z,0.00
2018-12-17T04:00:26.678Z,0.00
2018-12-17T04:01:26.652Z,0.00
2018-12-17T04:02:26.638Z,0.00
2018-12-17T04:03:26.629Z,0.00
2018-12-17T04:04:26.616Z,0.00
2018-12-17T04:05:26.622Z,0.00
2018-12-17T04:06:26.596Z,0.00
2018-12-17T04:07:26.589Z,0.00
2018-12-17T04:08:26.570Z,0.00
2018-12-17T04:09:26.561Z,0.00
2018-12-17T04:10:26.584Z,0.00
2018-12-17T04:11:26.541Z,0.00
2018-12-17T04:12:26.528Z,0.00
2018-12-17T04:13:26.514Z,0.00
2018-12-17T04:14:26.503Z,0.00
2018-12-17T04:15:26.514Z,0.00
2018-12-17T04:16:26.481Z,0.00
2018-12-17T04:17:26.478Z,0.00
2018-12-17T04:18:26.461Z,0.00
2018-12-17T04:19:26.447Z,0.00
2018-12-17T04:20:26.455Z,0.00
2018-12-17T04:21:26.427Z,0.00
2018-12-17T04:22:26.416Z,0.00
2018-12-17T04:23:26.403Z,0.00
2018-12-17T04:24:26.400Z,0.00
2018-12-17T04:25:26.403Z,0.00
2018-12-17T04:26:26.378Z,0.00
2018-12-17T04:27:26.357Z,0.00
2018-12-17T04:28:26.348Z,0.00
2018-12-17T04:29:26.339Z,0.00
2018-12-17T04:30:26.346Z,0.00
2018-12-17T04:31:27.632Z,0.00
2018-12-17T04:32:26.303Z,0.00
2018-12-17T04:33:26.295Z,0.00
2018-12-17T04:34:26.290Z,0.00
2018-12-17T04:35:26.305Z,0.00
2018-12-17T04:36:26.258Z,0.00
2018-12-17T04:37:26.244Z,0.00
2018-12-17T04:38:26.234Z,0.00
2018-12-17T04:39:26.225Z,0.00
2018-12-17T04:40:26.226Z,0.00
2018-12-17T04:41:26.204Z,0.00
2018-12-17T04:42:26.190Z,0.00
2018-12-17T04:43:26.178Z,0.00
2018-12-17T04:44:26.168Z,0.00
2018-12-17T04:45:26.183Z,0.00
2018-12-17T04:46:26.142Z,0.00
2018-12-17T04:47:26.133Z,0.00
2018-12-17T04:48:26.120Z,0.00
2018-12-17T04:49:26.122Z,0.00
2018-12-17T04:50:26.126Z,0.00
2018-12-17T04:51:26.118Z,0.00
2018-12-17T04:52:26.076Z,0.00
2018-12-17T04:53:26.067Z,0.00
2018-12-17T04:54:26.061Z,0.00
2018-12-17T04:55:26.041Z,0.00
2018-12-17T04:56:26.052Z,0.00
2018-12-17T04:57:26.025Z,0.00
2018-12-17T04:58:26.009Z,0.00
2018-12-17T04:59:26.006Z,0.00
2018-12-17T05:00:25.986Z,0.00
2018-12-17T05:01:26.007Z,0.00
2018-12-17T05:02:25.964Z,0.00
2018-12-17T05:03:25.954Z,0.00
2018-12-17T05:04:25.939Z,0.00
2018-12-17T05:05:25.928Z,0.00
2018-12-17T05:06:25.917Z,0.00
2018-12-17T05:07:25.926Z,0.00
2018-12-17T05:08:25.898Z,0.00
2018-12-17T05:09:25.884Z,0.00
2018-12-17T05:10:25.872Z,0.00
2018-12-17T05:11:25.861Z,0.00
2018-12-17T05:12:25.865Z,0.00
2018-12-17T05:13:25.842Z,0.00
2018-12-17T05:14:25.832Z,0.00
2018-12-17T05:15:25.819Z,0.00
2018-12-17T05:16:25.807Z,0.00
2018-12-17T05:17:25.821Z,0.00
2018-12-17T05:18:25.782Z,0.00
2018-12-17T05:19:25.776Z,0.00
2018-12-17T05:20:25.758Z,0.00
2018-12-17T05:21:25.748Z,0.00
2018-12-17T05:22:25.744Z,0.00
2018-12-17T05:23:25.742Z,0.00
2018-12-17T05:24:25.714Z,0.00
2018-12-17T05:25:25.708Z,0.00
2018-12-17T05:26:25.694Z,0.00
2018-12-17T05:27:25.711Z,0.00
2018-12-17T05:28:25.671Z,0.00
2018-12-17T05:29:25.674Z,0.00
2018-12-17T05:30:25.650Z,0.00
2018-12-17T05:31:25.635Z,0.00
2018-12-17T05:32:25.624Z,0.00
2018-12-17T05:33:25.636Z,0.00
2018-12-17T05:34:25.602Z,0.00
2018-12-17T05:35:25.593Z,0.00
2018-12-17T05:36:25.581Z,0.00
2018-12-17T05:37:25.572Z,0.00
2018-12-17T05:38:25.579Z,0.00
2018-12-17T05:39:25.547Z,0.00
2018-12-17T05:40:25.537Z,0.00
2018-12-17T05:41:25.524Z,0.00
2018-12-17T05:42:25.520Z,0.00
2018-12-17T05:43:25.527Z,0.00
2018-12-17T05:44:25.492Z,0.00
2018-12-17T05:45:25.477Z,0.00
2018-12-17T05:46:25.467Z,0.00
2018-12-17T05:47:25.454Z,0.00
2018-12-17T05:48:25.446Z,0.00
2018-12-17T05:49:25.449Z,0.00
2018-12-17T05:50:25.436Z,0.00
2018-12-17T05:51:25.409Z,0.00
2018-12-17T05:52:25.401Z,0.00
2018-12-17T05:53:25.388Z,0.00
2018-12-17T05:54:25.391Z,0.00
2018-12-17T05:55:25.365Z,0.00
2018-12-17T05:56:25.357Z,0.00
2018-12-17T05:57:25.340Z,0.00
2018-12-17T05:58:25.331Z,0.00
2018-12-17T05:59:28.578Z,0.00
2018-12-17T06:00:25.310Z,0.00
2018-12-17T06:01:25.296Z,0.00
2018-12-17T06:02:25.291Z,0.00
2018-12-17T06:03:25.276Z,0.00
2018-12-17T06:04:25.262Z,0.00
2018-12-17T06:05:25.268Z,0.00
2018-12-17T06:06:25.241Z,0.00
2018-12-17T06:07:25.229Z,0.00
2018-12-17T06:08:25.221Z,0.00
2018-12-17T06:09:25.242Z,0.00
2018-12-17T06:10:25.203Z,0.00
2018-12-17T06:11:25.184Z,0.00
2018-12-17T06:12:25.171Z,0.00
2018-12-17T06:13:25.165Z,0.00
2018-12-17T06:14:25.150Z,0.00
2018-12-17T06:15:25.158Z,0.00
2018-12-17T06:16:25.130Z,0.00
2018-12-17T06:17:25.118Z,0.00
2018-12-17T06:18:25.106Z,0.00
2018-12-17T06:19:25.095Z,0.00
2018-12-17T06:20:25.100Z,0.00
2018-12-17T06:21:25.072Z,0.00
2018-12-17T06:22:25.070Z,0.00
2018-12-17T06:23:25.048Z,0.00
2018-12-17T06:24:25.041Z,0.00
2018-12-17T06:25:25.062Z,0.00
2018-12-17T06:26:25.017Z,0.00
2018-12-17T06:27:25.002Z,0.00
2018-12-17T06:28:24.991Z,0.00
2018-12-17T06:29:24.983Z,0.00
2018-12-17T06:30:24.971Z,0.00
2018-12-17T06:31:24.981Z,0.00
2018-12-17T06:32:24.949Z,0.00
2018-12-17T06:33:24.935Z,0.00
2018-12-17T06:34:24.925Z,0.00
2018-12-17T06:35:24.912Z,0.00
2018-12-17T06:36:24.923Z,0.00
2018-12-17T06:37:24.897Z,0.00
2018-12-17T06:38:24.879Z,0.00
2018-12-17T06:39:24.869Z,0.00
2018-12-17T06:40:24.856Z,0.00
2018-12-17T06:41:24.875Z,0.00
2018-12-17T06:42:24.835Z,0.00
2018-12-17T06:43:24.823Z,0.00
2018-12-17T06:44:24.818Z,0.00
2018-12-17T06:45:24.802Z,4.00
2018-12-17T06:46:24.796Z,4.00
2018-12-17T06:47:24.796Z,0.00
2018-12-17T06:48:24.777Z,4.00
2018-12-17T06:49:24.759Z,4.00
2018-12-17T06:50:24.745Z,4.00
2018-12-17T06:51:24.731Z,4.00
2018-12-17T06:52:24.738Z,4.00
2018-12-17T06:53:24.710Z,4.00
2018-12-17T06:54:24.698Z,8.00
2018-12-17T06:55:24.687Z,8.00
2018-12-17T06:56:24.675Z,8.00
2018-12-17T06:57:24.695Z,12.00
2018-12-17T06:58:24.657Z,12.00
2018-12-17T06:59:24.648Z,16.00
2018-12-17T07:00:24.631Z,16.00
2018-12-17T07:01:24.618Z,20.00
2018-12-17T07:02:24.612Z,24.00
2018-12-17T07:03:24.617Z,24.00
2018-12-17T07:04:24.586Z,28.00
2018-12-17T07:05:24.582Z,32.00
2018-12-17T07:06:24.567Z,36.00
2018-12-17T07:07:24.555Z,36.00
2018-12-17T07:08:24.561Z,36.00
2018-12-17T07:09:24.529Z,36.00
2018-12-17T07:10:24.518Z,36.00
2018-12-17T07:11:24.506Z,36.00
2018-12-17T07:12:24.495Z,36.00
2018-12-17T07:13:24.515Z,36.00
2018-12-17T07:14:24.474Z,36.00
2018-12-17T07:15:24.462Z,36.00
2018-12-17T07:16:24.451Z,40.00
2018-12-17T07:17:24.440Z,40.00
2018-12-17T07:18:24.428Z,44.00
2018-12-17T07:19:24.434Z,44.00
2018-12-17T07:20:24.405Z,48.00
2018-12-17T07:21:24.392Z,48.00
2018-12-17T07:22:24.383Z,48.00
2018-12-17T07:23:24.374Z,52.00
2018-12-17T07:24:24.374Z,56.00
2018-12-17T07:25:24.347Z,56.00
2018-12-17T07:26:24.339Z,60.00
2018-12-17T07:27:24.330Z,64.00
2018-12-17T07:28:24.313Z,72.00
2018-12-17T07:29:24.339Z,80.00
2018-12-17T07:30:24.291Z,88.00
2018-12-17T07:31:24.280Z,96.00
2018-12-17T07:32:24.312Z,100.00
2018-12-17T07:33:24.311Z,100.00
2018-12-17T07:34:24.254Z,104.00
2018-12-17T07:35:24.267Z,112.00
2018-12-17T07:36:24.228Z,120.00
2018-12-17T07:37:24.216Z,128.00
2018-12-17T07:38:24.205Z,136.00
2018-12-17T07:39:24.194Z,144.00
2018-12-17T07:40:24.202Z,144.00
2018-12-17T07:41:24.170Z,144.00
2018-12-17T07:42:24.159Z,144.00
2018-12-17T07:43:24.146Z,144.00
2018-12-17T07:44:24.134Z,160.00
2018-12-17T07:45:24.154Z,188.00
2018-12-17T07:46:24.111Z,208.00
2018-12-17T07:47:24.102Z,216.00
2018-12-17T07:48:24.090Z,220.00
2018-12-17T07:49:24.076Z,224.00
2018-12-17T07:50:24.068Z,236.00
2018-12-17T07:51:24.092Z,244.00
2018-12-17T07:52:24.053Z,260.00
2018-12-17T07:53:24.037Z,276.00
2018-12-17T07:54:24.033Z,296.00
2018-12-17T07:55:24.016Z,312.00
2018-12-17T07:56:24.016Z,332.00
2018-12-17T07:57:23.988Z,348.00
2018-12-17T07:58:23.976Z,348.00
2018-12-17T07:59:23.967Z,340.00
2018-12-17T08:00:23.953Z,328.00
2018-12-17T08:01:23.979Z,320.00
2018-12-17T08:02:23.932Z,312.00
2018-12-17T08:03:23.948Z,308.00
2018-12-17T08:04:23.909Z,312.00
2018-12-17T08:05:23.901Z,316.00
2018-12-17T08:06:23.885Z,316.00
2018-12-17T08:07:23.892Z,320.00
2018-12-17T08:08:23.891Z,316.00
2018-12-17T08:09:23.857Z,320.00
2018-12-17T08:10:23.842Z,328.00
2018-12-17T08:11:23.839Z,360.00
2018-12-17T08:12:23.836Z,376.00
2018-12-17T08:13:23.809Z,380.00
2018-12-17T08:14:23.796Z,408.00
2018-12-17T08:15:23.786Z,472.00
2018-12-17T08:16:23.772Z,512.00
2018-12-17T08:17:23.791Z,528.00
2018-12-17T08:18:23.756Z,556.00
2018-12-17T08:19:23.741Z,584.00
2018-12-17T08:20:23.730Z,640.00
2018-12-17T08:21:23.719Z,688.00
2018-12-17T08:22:23.708Z,736.00
2018-12-17T08:23:23.730Z,780.00
2018-12-17T08:24:23.700Z,876.00
2018-12-17T08:25:23.671Z,944.00
2018-12-17T08:26:23.660Z,996.00
2018-12-17T08:27:23.649Z,1056.00
2018-12-17T08:28:23.659Z,1060.00
2018-12-17T08:29:23.627Z,1100.00
2018-12-17T08:30:23.622Z,1212.00
2018-12-17T08:31:23.619Z,1244.00
2018-12-17T08:32:23.595Z,1300.00
2018-12-17T08:33:23.613Z,1248.00
2018-12-17T08:34:23.571Z,1208.00
2018-12-17T08:35:23.561Z,1144.00
2018-12-17T08:36:23.554Z,1096.00
2018-12-17T08:37:23.544Z,1064.00
2018-12-17T08:38:23.532Z,1052.00
2018-12-17T08:39:23.536Z,1032.00
2018-12-17T08:40:23.504Z,1028.00
2018-12-17T08:41:23.495Z,1004.00
2018-12-17T08:42:23.482Z,1000.00
2018-12-17T08:43:23.472Z,1020.00
2018-12-17T08:44:23.483Z,1028.00
2018-12-17T08:45:23.450Z,1004.00
2018-12-17T08:46:23.439Z,996.00
2018-12-17T08:47:23.430Z,1040.00
2018-12-17T08:48:23.416Z,1096.00
2018-12-17T08:49:23.433Z,1152.00
2018-12-17T08:50:23.393Z,1168.00
2018-12-17T08:51:23.392Z,1176.00
2018-12-17T08:52:23.381Z,1212.00
2018-12-17T08:53:23.361Z,1208.00
2018-12-17T08:54:23.348Z,1276.00
2018-12-17T08:55:23.354Z,1336.00
2018-12-17T08:56:23.327Z,1352.00
2018-12-17T08:57:23.314Z,1320.00
2018-12-17T08:58:23.311Z,1324.00
2018-12-17T08:59:23.294Z,1276.00
2018-12-17T09:00:23.300Z,1244.00
2018-12-17T09:01:23.272Z,1232.00
2018-12-17T09:02:23.262Z,1236.00
2018-12-17T09:03:23.250Z,1232.00
2018-12-17T09:04:23.241Z,1204.00
2018-12-17T09:05:23.244Z,1204.00
2018-12-17T09:06:23.219Z,1208.00
2018-12-17T09:07:23.210Z,1200.00
2018-12-17T09:08:23.200Z,1184.00
2018-12-17T09:09:23.179Z,1188.00
2018-12-17T09:10:23.192Z,1180.00
2018-12-17T09:11:23.162Z,1196.00
2018-12-17T09:12:23.164Z,1224.00
2018-12-17T09:13:23.140Z,1264.00
2018-12-17T09:14:23.126Z,1248.00
2018-12-17T09:15:23.133Z,1220.00
2018-12-17T09:16:23.107Z,1196.00
2018-12-17T09:17:23.096Z,1184.00
2018-12-17T09:18:23.079Z,1180.00
2018-12-17T09:19:23.068Z,1164.00
2018-12-17T09:20:23.086Z,1144.00
2018-12-17T09:21:23.059Z,1136.00
2018-12-17T09:22:23.036Z,1144.00
2018-12-17T09:23:23.026Z,1136.00
2018-12-17T09:24:23.014Z,1136.00
2018-12-17T09:25:23.006Z,1136.00
2018-12-17T09:26:23.014Z,1156.00
2018-12-17T09:27:22.979Z,1180.00
2018-12-17T09:28:22.971Z,1220.00
2018-12-17T09:29:22.959Z,1256.00
2018-12-17T09:30:22.946Z,1260.00
2018-12-17T09:31:22.963Z,1232.00
2018-12-17T09:32:22.924Z,1196.00
2018-12-17T09:33:22.916Z,1156.00
2018-12-17T09:34:22.901Z,1128.00
2018-12-17T09:35:22.892Z,1080.00
2018-12-17T09:36:22.878Z,1052.00
2018-12-17T09:37:22.884Z,1124.00
2018-12-17T09:38:22.856Z,1204.00
2018-12-17T09:39:22.846Z,1368.00
2018-12-17T09:40:22.836Z,1708.00
2018-12-17T09:41:22.822Z,1880.00
2018-12-17T09:42:22.827Z,2048.00
2018-12-17T09:43:22.802Z,2156.00
2018-12-17T09:44:22.788Z,2248.00
2018-12-17T09:45:22.778Z,2128.00
2018-12-17T09:46:22.767Z,2124.00
2018-12-17T09:47:22.787Z,2056.00
2018-12-17T09:48:22.757Z,2140.00
2018-12-17T09:49:22.735Z,2040.00
2018-12-17T09:50:22.722Z,2108.00
2018-12-17T09:51:22.713Z,1948.00
2018-12-17T09:52:22.700Z,1896.00
2018-12-17T09:53:22.705Z,1768.00
2018-12-17T09:54:22.680Z,1812.00
2018-12-17T09:55:22.668Z,1616.00
2018-12-17T09:56:22.654Z,1636.00
2018-12-17T09:57:22.645Z,1568.00
2018-12-17T09:58:22.650Z,1556.00
2018-12-17T09:59:22.624Z,1692.00
2018-12-17T10:00:25.527Z,1708.00
2018-12-17T10:01:22.626Z,1648.00
2018-12-17T10:02:22.595Z,1724.00
2018-12-17T10:03:22.626Z,1696.00
2018-12-17T10:04:22.565Z,1932.00
2018-12-17T10:05:22.555Z,1964.00
2018-12-17T10:06:22.547Z,1780.00
2018-12-17T10:07:22.534Z,1828.00
2018-12-17T10:08:22.521Z,1900.00
2018-12-17T10:09:22.529Z,1760.00
2018-12-17T10:10:22.500Z,1660.00
2018-12-17T10:11:22.489Z,1748.00
2018-12-17T10:12:22.490Z,1956.00
2018-12-17T10:13:22.469Z,1984.00
2018-12-17T10:14:22.473Z,2000.00
2018-12-17T10:15:22.445Z,2088.00
2018-12-17T10:16:22.438Z,1988.00
2018-12-17T10:17:22.430Z,2160.00
2018-12-17T10:18:22.410Z,2272.00
2018-12-17T10:19:22.429Z,2364.00
2018-12-17T10:20:22.388Z,2260.00
2018-12-17T10:21:22.376Z,2296.00
2018-12-17T10:22:22.368Z,2344.00
2018-12-17T10:23:22.356Z,2264.00
2018-12-17T10:24:22.347Z,1988.00
2018-12-17T10:25:22.347Z,1668.00
2018-12-17T10:26:22.320Z,1716.00
2018-12-17T10:27:22.309Z,1436.00
2018-12-17T10:28:22.301Z,1312.00
2018-12-17T10:29:22.285Z,1544.00
2018-12-17T10:30:22.298Z,1700.00
2018-12-17T10:31:22.265Z,1948.00
2018-12-17T10:32:22.250Z,2004.00
2018-12-17T10:33:22.246Z,2152.00
2018-12-17T10:34:22.240Z,2316.00
2018-12-17T10:35:22.250Z,2220.00
2018-12-17T10:36:22.206Z,1896.00
2018-12-17T10:37:22.196Z,1836.00
2018-12-17T10:38:22.184Z,1700.00
2018-12-17T10:39:22.177Z,1700.00
2018-12-17T10:40:22.162Z,1692.00
2018-12-17T10:41:22.171Z,1748.00
2018-12-17T10:42:22.140Z,1608.00
2018-12-17T10:43:22.130Z,1668.00
2018-12-17T10:44:22.119Z,1724.00
2018-12-17T10:45:22.116Z,1880.00
2018-12-17T10:46:22.116Z,2248.00
2018-12-17T10:47:22.084Z,2180.00
2018-12-17T10:48:22.072Z,2284.00
2018-12-17T10:49:22.063Z,2324.00
2018-12-17T10:50:22.061Z,2328.00
2018-12-17T10:51:22.067Z,2364.00
2018-12-17T10:52:22.025Z,2300.00
2018-12-17T10:53:22.014Z,1968.00
2018-12-17T10:54:22.005Z,1808.00
2018-12-17T10:55:21.991Z,1732.00
2018-12-17T10:56:21.980Z,1652.00
2018-12-17T10:57:21.991Z,1684.00
2018-12-17T10:58:21.957Z,1488.00
2018-12-17T10:59:21.947Z,1272.00
2018-12-17T11:00:21.934Z,1172.00
2018-12-17T11:01:21.923Z,1152.00
2018-12-17T11:02:21.930Z,1084.00
2018-12-17T11:03:21.901Z,1032.00
2018-12-17T11:04:21.891Z,1016.00
2018-12-17T11:05:21.878Z,1048.00
2018-12-17T11:06:21.867Z,1016.00
2018-12-17T11:07:21.885Z,972.00
2018-12-17T11:08:21.846Z,972.00
2018-12-17T11:09:21.833Z,960.00
2018-12-17T11:10:21.821Z,956.00
2018-12-17T11:11:21.810Z,972.00
2018-12-17T11:12:21.804Z,980.00
2018-12-17T11:13:21.813Z,1044.00
2018-12-17T11:14:21.795Z,1168.00
2018-12-17T11:15:21.764Z,1244.00
2018-12-17T11:16:21.758Z,1244.00
2018-12-17T11:17:21.743Z,1272.00
2018-12-17T11:18:21.749Z,1292.00
2018-12-17T11:19:21.718Z,1248.00
2018-12-17T11:20:21.707Z,1288.00
2018-12-17T11:21:21.698Z,1328.00
2018-12-17T11:22:21.686Z,1288.00
2018-12-17T11:23:21.705Z,1228.00
2018-12-17T11:24:21.663Z,1164.00
2018-12-17T11:25:21.652Z,1112.00
2018-12-17T11:26:21.641Z,1068.00
2018-12-17T11:27:21.632Z,996.00
2018-12-17T11:28:21.621Z,1008.00
2018-12-17T11:29:21.623Z,1008.00
2018-12-17T11:30:21.595Z,1032.00
2018-12-17T11:31:21.584Z,1028.00
2018-12-17T11:32:21.571Z,1036.00
2018-12-17T11:33:21.562Z,1092.00
2018-12-17T11:34:21.573Z,1116.00
2018-12-17T11:35:21.538Z,1148.00
2018-12-17T11:36:21.529Z,1176.00
2018-12-17T11:37:21.520Z,1172.00
2018-12-17T11:38:21.512Z,1156.00
2018-12-17T11:39:21.523Z,1148.00
2018-12-17T11:40:21.505Z,1156.00
2018-12-17T11:41:21.470Z,1152.00
2018-12-17T11:42:21.459Z,1168.00
2018-12-17T11:43:21.448Z,1180.00
2018-12-17T11:44:21.432Z,1188.00
2018-12-17T11:45:21.457Z,1200.00
2018-12-17T11:46:21.417Z,1208.00
2018-12-17T11:47:21.405Z,1212.00
2018-12-17T11:48:21.394Z,1208.00
2018-12-17T11:49:21.380Z,1204.00
2018-12-17T11:50:21.384Z,1200.00
2018-12-17T11:51:21.356Z,1200.00
2018-12-17T11:52:21.346Z,1192.00
2018-12-17T11:53:21.333Z,1180.00
2018-12-17T11:54:21.321Z,1160.00
2018-12-17T11:55:21.343Z,1136.00
2018-12-17T11:56:21.300Z,1120.00
2018-12-17T11:57:21.291Z,1100.00
2018-12-17T11:58:21.281Z,1080.00
2018-12-17T11:59:21.265Z,1052.00
2018-12-17T12:00:21.253Z,1024.00
2018-12-17T12:01:21.997Z,1008.00
2018-12-17T12:02:21.235Z,1004.00
2018-12-17T12:03:21.221Z,1004.00
2018-12-17T12:04:21.208Z,1004.00
2018-12-17T12:05:21.203Z,1000.00
2018-12-17T12:06:21.226Z,984.00
2018-12-17T12:07:21.177Z,960.00
2018-12-17T12:08:21.165Z,928.00
2018-12-17T12:09:21.157Z,892.00
2018-12-17T12:10:21.145Z,864.00
2018-12-17T12:11:21.164Z,844.00
2018-12-17T12:12:21.121Z,824.00
2018-12-17T12:13:21.112Z,816.00
2018-12-17T12:14:21.101Z,820.00
2018-12-17T12:15:21.087Z,832.00
2018-12-17T12:16:21.079Z,840.00
2018-12-17T12:17:21.138Z,852.00
2018-12-17T12:18:21.054Z,856.00
2018-12-17T12:19:21.050Z,864.00
2018-12-17T12:20:21.032Z,880.00
2018-12-17T12:21:21.026Z,900.00
2018-12-17T12:22:21.033Z,924.00
2018-12-17T12:23:21.000Z,952.00
2018-12-17T12:24:20.990Z,968.00
2018-12-17T12:25:20.978Z,976.00
2018-12-17T12:26:20.965Z,976.00
2018-12-17T12:27:20.983Z,968.00
2018-12-17T12:28:20.941Z,960.00
2018-12-17T12:29:20.935Z,956.00
2018-12-17T12:30:20.919Z,956.00
2018-12-17T12:31:20.911Z,956.00
2018-12-17T12:32:20.897Z,952.00
2018-12-17T12:33:20.905Z,948.00
2018-12-17T12:34:20.877Z,944.00
2018-12-17T12:35:20.866Z,948.00
2018-12-17T12:36:20.854Z,956.00
2018-12-17T12:37:20.843Z,960.00
2018-12-17T12:38:20.848Z,964.00
2018-12-17T12:39:20.820Z,968.00
2018-12-17T12:40:20.810Z,964.00
2018-12-17T12:41:20.798Z,952.00
2018-12-17T12:42:20.786Z,940.00
2018-12-17T12:43:20.804Z,936.00
2018-12-17T12:44:20.763Z,932.00
2018-12-17T12:45:20.751Z,928.00
2018-12-17T12:46:20.739Z,916.00
2018-12-17T12:47:20.729Z,908.00
2018-12-17T12:48:20.719Z,900.00
2018-12-17T12:49:20.728Z,876.00